Time;durP1;ratioP1;P1;durP2;ratioP2;P2;SDS_P1;SDS_P2;PMS_P1;PMS_P2;Temp;Humidity;BMP_temperature;BMP_pressure;BME280_temperature;BME280_humidity;BME280_pressure;Samples;Min_cycle;Max_cycle;Signal;HPM_P1;HPM_P2
2023/08/23 00:00:39;;;;;;;;;3.00;3.00;;;;;26.72;44.91;101541.72;4958052;28;45369;-39
2023/08/23 00:03:04;;;;;;;;;2.00;2.00;;;;;26.70;44.66;101538.31;4957839;28;45243;-42
2023/08/23 00:05:29;;;;;;;;;1.00;1.00;;;;;26.70;44.84;101533.00;4958006;28;45585;-40
2023/08/23 00:07:55;;;;;;;;;2.00;1.75;;;;;26.68;44.72;101535.75;4956908;28;61716;-38
2023/08/23 00:10:20;;;;;;;;;2.00;2.00;;;;;26.66;44.50;101526.19;4939112;28;56847;-36
2023/08/23 00:12:45;;;;;;;;;1.00;1.00;;;;;26.64;44.57;101523.66;4940019;28;50008;-39
2023/08/23 00:15:11;;;;;;;;;1.00;1.00;;;;;26.64;44.44;101528.09;4957821;28;45692;-37
2023/08/23 00:17:36;;;;;;;;;1.25;1.25;;;;;26.62;44.67;101530.88;4956892;28;60647;-36
2023/08/23 00:20:01;;;;;;;;;2.00;1.00;;;;;26.61;44.64;101523.03;4957520;28;45366;-40
2023/08/23 00:22:27;;;;;;;;;1.00;1.00;;;;;26.59;44.55;101520.47;4957544;28;45270;-41
2023/08/23 00:24:52;;;;;;;;;3.00;3.00;;;;;26.59;44.23;101516.97;4957841;28;45247;-39
2023/08/23 00:27:17;;;;;;;;;3.00;0.25;;;;;26.57;44.42;101510.91;4957059;28;50433;-41
2023/08/23 00:29:43;;;;;;;;;1.25;1.00;;;;;26.54;44.44;101518.13;4957061;28;49595;-45
2023/08/23 00:32:08;;;;;;;;;2.00;1.00;;;;;26.54;44.23;101518.13;4957688;28;45679;-41
2023/08/23 00:34:33;;;;;;;;;3.00;1.00;;;;;26.53;44.27;101510.28;4957064;28;48991;-37
2023/08/23 00:36:59;;;;;;;;;1.00;1.00;;;;;26.49;44.24;101501.69;4957097;28;46172;-38
2023/08/23 00:39:24;;;;;;;;;1.50;1.25;;;;;26.49;44.32;101499.00;4957171;28;49331;-43
2023/08/23 00:41:49;;;;;;;;;1.00;1.00;;;;;26.47;43.86;101492.94;4956419;28;58178;-43
2023/08/23 00:44:15;;;;;;;;;1.00;1.00;;;;;26.46;44.04;101491.25;4957013;28;48163;-45
2023/08/23 00:46:40;;;;;;;;;1.25;1.25;;;;;26.45;43.83;101484.22;4957318;28;46587;-37
2023/08/23 00:49:06;;;;;;;;;3.00;2.00;;;;;26.45;43.83;101481.56;4957112;28;45417;-43
2023/08/23 00:51:33;;;;;;;;;2.00;2.00;;;;;26.44;44.33;101479.88;4958552;28;45411;-43
2023/08/23 00:53:58;;;;;;;;;1.00;1.00;;;;;26.43;43.89;101472.00;4960937;28;45401;-50
2023/08/23 00:56:24;;;;;;;;;1.50;1.50;;;;;26.41;43.85;101474.75;4960423;28;46171;-46
2023/08/23 00:58:49;;;;;;;;;2.00;2.00;;;;;26.41;43.72;101469.44;4960515;28;45358;-37
2023/08/23 01:01:14;;;;;;;;;2.25;2.00;;;;;26.40;43.94;101470.44;4960501;28;45224;-38
2023/08/23 01:03:40;;;;;;;;;1.00;1.00;;;;;26.39;44.12;101468.72;4943661;28;45401;-38
2023/08/23 01:06:18;;;;;;;;;1.75;1.00;;;;;26.38;43.62;101480.31;4960182;28;45552;-40
2023/08/23 01:08:58;;;;;;;;;2.50;2.50;;;;;26.35;44.02;101475.22;4960654;28;45254;-41
2023/08/23 01:11:44;;;;;;;;;2.00;1.75;;;;;26.35;43.57;101470.72;4960426;28;45426;-38
2023/08/23 01:14:19;;;;;;;;;1.25;1.25;;;;;26.33;43.85;101470.00;4960553;28;45414;-42
2023/08/23 01:16:47;;;;;;;;;1.00;1.00;;;;;26.33;43.77;101471.81;4960137;28;46248;-40
2023/08/23 01:19:36;;;;;;;;;1.00;1.00;;;;;26.31;43.98;101468.41;4960436;28;45552;-36
2023/08/23 01:22:04;;;;;;;;;1.75;1.75;;;;;26.31;43.57;101476.38;4954051;28;45432;-42
2023/08/23 01:24:30;;;;;;;;;1.00;1.00;;;;;26.29;43.86;101465.88;4942942;28;45339;-39
2023/08/23 01:26:56;;;;;;;;;2.75;1.50;;;;;26.28;43.71;101469.47;4959902;28;45425;-38
2023/08/23 01:29:21;;;;;;;;;1.00;1.00;;;;;26.30;43.72;101469.34;4960005;28;45728;-44
2023/08/23 01:31:49;;;;;;;;;2.25;1.00;;;;;26.29;43.61;101470.34;4959675;28;47974;-37
2023/08/23 01:34:31;;;;;;;;;2.50;1.50;;;;;26.29;44.06;101470.34;4960554;28;45476;-46
2023/08/23 01:37:01;;;;;;;;;1.25;1.25;;;;;26.30;44.07;101479.97;4959714;28;45403;-41
2023/08/23 01:39:26;;;;;;;;;2.00;2.00;;;;;26.29;43.93;101475.66;4959761;28;45488;-38
2023/08/23 01:41:54;;;;;;;;;4.00;1.25;;;;;26.29;43.94;101470.34;4959814;28;45422;-39
2023/08/23 01:44:19;;;;;;;;;1.00;1.00;;;;;26.29;43.87;101467.69;4960048;28;45466;-41
2023/08/23 01:46:44;;;;;;;;;1.00;1.00;;;;;26.29;43.63;101470.34;4959807;28;51886;-45
2023/08/23 01:49:10;;;;;;;;;1.00;1.00;;;;;26.27;43.89;101465.13;4959714;28;45335;-42
2023/08/23 01:51:35;;;;;;;;;1.00;1.00;;;;;26.28;43.86;101474.78;4959714;28;45180;-45
2023/08/23 01:54:01;;;;;;;;;1.75;1.75;;;;;26.28;43.73;101473.94;4959880;28;45308;-45
2023/08/23 01:56:26;;;;;;;;;1.00;1.00;;;;;26.29;43.73;101467.69;4959348;28;45518;-44
2023/08/23 01:58:51;;;;;;;;;2.50;1.00;;;;;26.28;43.93;101463.31;4959065;28;54943;-48
2023/08/23 02:01:17;;;;;;;;;1.00;1.00;;;;;26.25;43.89;101459.06;4959438;28;57280;-45
2023/08/23 02:03:42;;;;;;;;;3.50;1.50;;;;;26.25;43.89;101456.41;4959754;28;45365;-41
2023/08/23 02:06:07;;;;;;;;;1.50;1.50;;;;;26.24;43.72;101452.03;4959412;28;49735;-43
2023/08/23 02:08:34;;;;;;;;;3.25;2.00;;;;;26.23;43.76;101455.69;4959322;28;45226;-39
2023/08/23 02:11:00;;;;;;;;;2.50;1.00;;;;;26.22;43.63;101449.50;4959505;28;45357;-41
2023/08/23 02:13:25;;;;;;;;;3.00;2.00;;;;;26.22;43.80;101448.66;4959552;28;45323;-42
2023/08/23 02:15:50;;;;;;;;;2.00;1.00;;;;;26.21;43.55;101447.78;4958670;28;62567;-42
2023/08/23 02:18:15;;;;;;;;;1.00;1.00;;;;;26.20;43.79;101448.75;4959573;28;45290;-42
2023/08/23 02:20:41;;;;;;;;;3.00;1.25;;;;;26.19;44.09;101439.06;4958218;28;45354;-38
2023/08/23 02:23:06;;;;;;;;;1.00;1.00;;;;;26.19;43.94;101449.69;4959105;28;45421;-39
2023/08/23 02:25:31;;;;;;;;;3.00;1.00;;;;;26.17;43.81;101438.34;4958888;28;51035;-45
2023/08/23 02:27:57;;;;;;;;;3.00;1.25;;;;;26.17;44.20;101441.00;4959092;28;45366;-45
2023/08/23 02:30:22;;;;;;;;;1.00;1.00;;;;;26.14;44.09;101438.56;4957890;28;45322;-43
2023/08/23 02:32:47;;;;;;;;;1.00;1.00;;;;;26.13;44.10;101434.22;4958971;28;54521;-45
2023/08/23 02:35:13;;;;;;;;;2.75;1.75;;;;;26.14;43.99;101440.34;4958137;28;69764;-41
2023/08/23 02:37:38;;;;;;;;;1.75;1.75;;;;;26.13;44.08;101439.53;4958982;28;45452;-39
2023/08/23 02:40:04;;;;;;;;;3.00;1.00;;;;;26.13;43.72;101439.53;4957004;28;62151;-43
2023/08/23 02:42:29;;;;;;;;;1.00;1.00;;;;;26.13;44.10;101438.69;4958969;28;45449;-43
2023/08/23 02:44:55;;;;;;;;;1.00;1.00;;;;;26.12;43.78;101442.28;4957558;28;48611;-44
2023/08/23 02:47:20;;;;;;;;;2.00;2.00;;;;;26.11;43.82;101445.91;4958292;28;58488;-41
2023/08/23 02:49:45;;;;;;;;;1.00;1.00;;;;;26.10;43.96;101445.03;4959284;28;45256;-49
2023/08/23 02:52:10;;;;;;;;;1.00;1.00;;;;;26.10;43.91;101438.91;4959040;28;45625;-38
2023/08/23 02:54:36;;;;;;;;;0.75;0.75;;;;;26.11;43.84;101436.13;4958140;28;61634;-41
2023/08/23 02:57:01;;;;;;;;;2.25;2.00;;;;;26.09;44.21;101422.06;4957347;28;45288;-37
2023/08/23 02:59:26;;;;;;;;;3.00;1.25;;;;;26.08;43.95;101429.19;4958093;28;59170;-37
2023/08/23 03:01:52;;;;;;;;;2.00;2.00;;;;;26.08;43.77;101441.59;4958838;28;45543;-36
2023/08/23 03:04:17;;;;;;;;;1.00;1.00;;;;;26.07;43.90;101443.44;4958853;28;45270;-38
2023/08/23 03:06:42;;;;;;;;;2.00;2.00;;;;;26.07;44.11;101440.75;4958317;28;49444;-38
2023/08/23 03:09:08;;;;;;;;;2.00;2.00;;;;;26.07;44.06;101438.09;4958664;28;45404;-36
2023/08/23 03:11:33;;;;;;;;;4.50;1.50;;;;;26.05;44.01;101442.69;4958255;28;48835;-37
2023/08/23 03:13:58;;;;;;;;;5.00;1.75;;;;;26.03;43.96;101444.59;4957923;28;45429;-36
2023/08/23 03:16:23;;;;;;;;;2.00;1.00;;;;;26.02;44.17;101442.88;4957842;28;58300;-36
2023/08/23 03:18:49;;;;;;;;;2.00;1.00;;;;;26.02;43.97;101442.03;4958448;28;49282;-36
2023/08/23 03:21:14;;;;;;;;;1.75;1.75;;;;;26.01;44.03;101445.66;4958425;28;45225;-36
2023/08/23 03:23:39;;;;;;;;;2.75;1.00;;;;;25.99;44.19;101443.13;4958062;28;46040;-38
2023/08/23 03:26:05;;;;;;;;;1.50;1.50;;;;;25.99;43.95;101437.81;4958319;28;45321;-42
2023/08/23 03:28:30;;;;;;;;;1.75;1.75;;;;;25.99;44.35;101439.59;4958399;28;45335;-38
2023/08/23 03:31:03;;;;;;;;;1.25;1.25;;;;;25.99;44.30;101431.63;4958168;28;45377;-35
2023/08/23 03:33:29;;;;;;;;;2.00;1.00;;;;;25.98;44.29;101436.09;4958073;28;46312;-36
2023/08/23 03:35:54;;;;;;;;;2.00;2.00;;;;;25.98;44.11;101429.91;4958229;28;45632;-38
2023/08/23 03:38:20;;;;;;;;;2.75;1.00;;;;;25.98;44.09;101430.78;4958077;28;52589;-36
2023/08/23 03:40:45;;;;;;;;;1.50;1.50;;;;;25.98;44.18;101421.94;4957863;28;45440;-37
2023/08/23 03:43:10;;;;;;;;;4.00;2.00;;;;;25.98;44.16;101421.94;4957921;28;45425;-37
2023/08/23 03:45:35;;;;;;;;;1.00;1.00;;;;;25.97;44.04;101413.16;4957222;28;63280;-38
2023/08/23 03:48:02;;;;;;;;;3.25;2.00;;;;;25.97;44.56;101414.94;4958067;28;45476;-38
2023/08/23 03:50:27;;;;;;;;;1.00;1.00;;;;;25.95;44.11;101414.22;4958101;28;45396;-37
2023/08/23 03:52:52;;;;;;;;;1.00;1.00;;;;;25.93;44.05;101417.84;4957895;28;45971;-39
2023/08/23 03:55:18;;;;;;;;;0.00;0.00;;;;;25.91;44.06;101425.03;4940528;28;45439;-38
2023/08/23 03:57:43;;;;;;;;;1.25;0.75;;;;;25.90;44.22;101419.84;4957948;28;45426;-38
2023/08/23 04:00:09;;;;;;;;;1.25;1.00;;;;;25.91;44.46;101425.03;4958084;28;45583;-39
2023/08/23 04:02:34;;;;;;;;;1.00;1.00;;;;;25.89;44.28;101426.97;4956393;28;47444;-40
2023/08/23 04:05:02;;;;;;;;;3.00;1.00;;;;;25.89;44.39;101426.97;4957674;28;45311;-46
2023/08/23 04:07:27;;;;;;;;;1.50;1.50;;;;;25.88;44.33;101430.56;4957737;28;45267;-45
2023/08/23 04:09:53;;;;;;;;;1.25;1.25;;;;;25.87;44.51;101430.69;4958195;28;45607;-44
2023/08/23 04:12:18;;;;;;;;;3.50;1.00;;;;;25.85;44.62;101430.75;4956913;28;60804;-46
2023/08/23 04:14:43;;;;;;;;;2.00;2.00;;;;;25.84;44.42;101436.19;4957591;28;45271;-44
2023/08/23 04:17:09;;;;;;;;;1.00;1.00;;;;;25.84;44.42;101434.41;4957746;28;45324;-46
2023/08/23 04:19:34;;;;;;;;;1.00;1.00;;;;;25.84;44.48;101437.06;4957751;28;45524;-40
2023/08/23 04:21:59;;;;;;;;;1.00;1.00;;;;;25.85;44.42;101438.72;4957410;28;46124;-39
2023/08/23 04:24:25;;;;;;;;;1.25;1.25;;;;;25.84;44.58;101434.41;4957759;28;45469;-40
2023/08/23 04:26:50;;;;;;;;;1.00;1.00;;;;;25.84;44.50;101439.72;4956525;28;45312;-43
2023/08/23 04:29:15;;;;;;;;;1.00;1.00;;;;;25.83;44.44;101431.84;4957076;28;54734;-44
2023/08/23 04:31:40;;;;;;;;;1.00;1.00;;;;;25.82;44.79;101436.31;4956644;28;58486;-47
2023/08/23 04:34:06;;;;;;;;;1.00;1.00;;;;;25.80;44.79;101432.91;4955245;28;66843;-46
2023/08/23 04:36:31;;;;;;;;;2.00;2.00;;;;;25.79;44.31;101441.81;4957360;28;45408;-42
2023/08/23 04:38:57;;;;;;;;;1.75;1.00;;;;;25.77;44.46;101428.66;4957950;28;45408;-44
2023/08/23 04:41:22;;;;;;;;;2.00;2.00;;;;;25.76;44.19;101426.09;4957209;28;45700;-42
2023/08/23 04:43:47;;;;;;;;;1.75;1.75;;;;;25.75;44.45;101424.38;4956077;28;45469;-38
2023/08/23 04:46:12;;;;;;;;;2.50;1.00;;;;;25.73;44.48;101427.16;4956536;28;62487;-37
2023/08/23 04:48:38;;;;;;;;;1.00;1.00;;;;;25.74;44.66;101428.03;4957514;28;45321;-37
2023/08/23 04:51:08;;;;;;;;;2.25;0.00;;;;;25.72;44.53;101435.25;4956999;28;45406;-39
2023/08/23 04:53:33;;;;;;;;;2.00;2.00;;;;;25.71;44.49;101433.53;4957243;28;45504;-44
2023/08/23 04:55:58;;;;;;;;;1.00;1.00;;;;;25.71;44.78;101436.19;4957184;28;45188;-40
2023/08/23 04:58:29;;;;;;;;;1.00;1.00;;;;;25.70;44.59;101432.66;4957671;28;45299;-43
2023/08/23 05:00:58;;;;;;;;;6.50;1.00;;;;;25.70;44.62;101437.97;4957217;28;46488;-40
2023/08/23 05:03:24;;;;;;;;;2.75;1.50;;;;;25.70;44.99;101434.50;4957340;28;45361;-41
2023/08/23 05:05:49;;;;;;;;;1.75;1.75;;;;;25.69;44.80;101436.28;4957125;28;45173;-38
2023/08/23 05:08:15;;;;;;;;;2.00;2.00;;;;;25.68;45.06;101431.94;4955761;28;45384;-36
2023/08/23 05:10:40;;;;;;;;;0.50;0.50;;;;;25.68;44.70;101428.44;4956196;28;62349;-35
2023/08/23 05:13:05;;;;;;;;;2.25;2.00;;;;;25.70;45.01;101429.19;4956464;28;52055;-36
2023/08/23 05:15:30;;;;;;;;;2.25;1.00;;;;;25.70;44.89;101439.81;4956624;28;48257;-37
2023/08/23 05:17:58;;;;;;;;;1.25;1.00;;;;;25.71;45.03;101438.84;4956675;28;50724;-37
2023/08/23 05:20:23;;;;;;;;;1.25;0.50;;;;;25.70;44.68;101445.13;4956685;28;45413;-38
2023/08/23 05:22:48;;;;;;;;;1.00;1.00;;;;;25.70;45.00;101442.47;4938855;28;45332;-40
2023/08/23 05:25:14;;;;;;;;;1.25;1.25;;;;;25.69;44.96;101436.28;4956302;28;55571;-38
2023/08/23 05:27:39;;;;;;;;;0.75;0.75;;;;;25.68;45.24;101428.44;4956873;28;45450;-36
2023/08/23 05:30:05;;;;;;;;;1.75;1.00;;;;;25.68;44.88;101436.41;4956483;28;49364;-38
2023/08/23 05:32:30;;;;;;;;;2.50;1.00;;;;;25.68;45.05;101431.94;4956636;28;45355;-36
2023/08/23 05:34:56;;;;;;;;;2.00;2.00;;;;;25.68;44.80;101431.09;4956867;28;45534;-39
2023/08/23 05:37:21;;;;;;;;;1.50;1.50;;;;;25.68;45.39;101431.09;4957869;28;45619;-37
2023/08/23 05:39:47;;;;;;;;;2.75;2.00;;;;;25.68;44.74;101445.22;4958365;28;46858;-36
2023/08/23 05:42:12;;;;;;;;;1.50;1.50;;;;;25.67;45.16;101447.97;4959623;28;45878;-37
2023/08/23 05:44:38;;;;;;;;;2.00;1.00;;;;;25.67;45.12;101447.97;4959947;28;45299;-36
2023/08/23 05:47:03;;;;;;;;;1.00;1.00;;;;;25.65;45.04;101453.38;4959922;28;45531;-37
2023/08/23 05:49:29;;;;;;;;;1.75;1.75;;;;;25.65;45.52;101444.56;4959640;28;51825;-37
2023/08/23 05:51:54;;;;;;;;;2.00;2.00;;;;;25.63;45.26;101439.38;4959443;28;47460;-40
2023/08/23 05:54:20;;;;;;;;;2.50;2.25;;;;;25.60;45.31;101437.78;4959776;28;45491;-45
2023/08/23 05:56:45;;;;;;;;;1.00;1.00;;;;;25.56;45.40;101436.28;4959875;28;45337;-39
2023/08/23 05:59:10;;;;;;;;;3.25;2.50;;;;;25.54;45.34;101442.66;4942026;28;46339;-37
2023/08/23 06:01:36;;;;;;;;;3.00;1.00;;;;;25.52;45.86;101424.16;4959367;28;45374;-38
2023/08/23 06:04:01;;;;;;;;;1.00;1.00;;;;;25.51;45.72;101421.63;4959838;28;45450;-36
2023/08/23 06:06:26;;;;;;;;;3.50;2.00;;;;;25.48;45.49;101428.00;4959668;28;45489;-36
2023/08/23 06:08:52;;;;;;;;;1.00;1.00;;;;;25.49;45.96;101436.78;4959395;28;46089;-38
2023/08/23 06:11:17;;;;;;;;;2.00;2.00;;;;;25.48;45.30;101435.94;4959392;28;45410;-37
2023/08/23 06:13:42;;;;;;;;;0.00;0.00;;;;;25.46;45.67;101448.47;4957901;28;51826;-37
2023/08/23 06:16:08;;;;;;;;;1.25;1.25;;;;;25.46;45.34;101437.84;4959723;28;45434;-36
2023/08/23 06:18:34;;;;;;;;;2.00;2.00;;;;;25.44;45.84;101437.09;4959103;28;45413;-36
2023/08/23 06:20:59;;;;;;;;;3.25;2.50;;;;;25.43;45.40;101430.09;4959579;28;45319;-39
2023/08/23 06:23:24;;;;;;;;;3.50;3.00;;;;;25.40;45.88;101427.63;4959472;28;45291;-41
2023/08/23 06:25:56;;;;;;;;;3.00;1.75;;;;;25.40;45.48;101435.59;4958279;28;45463;-39
2023/08/23 06:28:21;;;;;;;;;2.00;2.00;;;;;25.37;46.14;101433.13;4959183;28;46261;-36
2023/08/23 06:30:47;;;;;;;;;1.50;1.50;;;;;25.37;46.40;101436.63;4959024;28;45497;-38
2023/08/23 06:33:12;;;;;;;;;1.75;1.75;;;;;25.37;45.86;101435.78;4958453;28;60784;-39
2023/08/23 06:35:37;;;;;;;;;2.50;2.00;;;;;25.36;45.76;101434.09;4959326;28;45385;-43
2023/08/23 06:38:03;;;;;;;;;2.50;2.50;;;;;25.36;45.76;101434.91;4959158;28;45991;-39
2023/08/23 06:40:28;;;;;;;;;1.50;1.00;;;;;25.35;46.22;101430.59;4958711;28;45477;-39
2023/08/23 06:42:53;;;;;;;;;2.25;2.25;;;;;25.35;46.31;101427.06;4959052;28;45397;-37
2023/08/23 06:45:19;;;;;;;;;2.75;1.50;;;;;25.34;46.48;101434.19;4958256;28;45359;-45
2023/08/23 06:47:44;;;;;;;;;4.00;2.00;;;;;25.34;46.38;101435.97;4957889;28;53466;-40
2023/08/23 06:50:10;;;;;;;;;2.25;2.00;;;;;25.32;46.52;101428.97;4957890;28;45438;-40
2023/08/23 06:52:35;;;;;;;;;2.00;2.00;;;;;25.36;46.17;101431.44;4959262;28;45310;-51
2023/08/23 06:55:02;;;;;;;;;1.00;1.00;;;;;25.35;46.21;101429.72;4959495;28;45548;-39
2023/08/23 06:57:30;;;;;;;;;3.75;2.00;;;;;25.37;45.91;101435.78;4958539;28;46877;-38
2023/08/23 06:59:59;;;;;;;;;2.00;2.00;;;;;25.37;46.44;101433.97;4958642;28;45820;-42
2023/08/23 07:02:25;;;;;;;;;1.25;1.25;;;;;25.38;46.39;101443.63;4958650;28;45474;-40
2023/08/23 07:04:52;;;;;;;;;4.25;2.00;;;;;25.40;46.35;101451.50;4958809;28;45336;-40
2023/08/23 07:07:21;;;;;;;;;2.50;2.50;;;;;25.41;46.21;101455.91;4958409;28;46169;-39
2023/08/23 07:09:47;;;;;;;;;3.50;3.50;;;;;25.43;46.02;101468.09;4958436;28;45761;-38
2023/08/23 07:12:12;;;;;;;;;2.00;2.00;;;;;25.45;46.22;101454.72;4958438;28;45354;-44
2023/08/23 07:14:37;;;;;;;;;3.00;2.75;;;;;25.45;46.24;101455.59;4958863;28;45287;-38
2023/08/23 07:17:03;;;;;;;;;2.00;2.00;;;;;25.43;46.11;101449.53;4958008;28;61673;-36
2023/08/23 07:19:28;;;;;;;;;2.75;2.00;;;;;25.44;46.46;101453.03;4958342;28;45414;-40
2023/08/23 07:21:53;;;;;;;;;4.25;3.25;;;;;25.44;46.32;101453.03;4957880;28;54867;-39
2023/08/23 07:24:19;;;;;;;;;3.25;2.00;;;;;25.46;46.62;101464.38;4957333;28;45611;-38
2023/08/23 07:26:44;;;;;;;;;4.00;2.00;;;;;25.44;46.08;101459.19;4958021;28;48757;-41
2023/08/23 07:29:11;;;;;;;;;3.75;3.75;;;;;25.46;46.49;101457.28;4958081;28;45436;-39
2023/08/23 07:31:37;;;;;;;;;5.00;3.00;;;;;25.46;46.60;101461.72;4958356;28;45347;-46
2023/08/23 07:34:02;;;;;;;;;4.75;3.00;;;;;25.48;46.58;101457.19;4958528;28;45352;-41
2023/08/23 07:36:28;;;;;;;;;3.00;2.50;;;;;25.48;46.27;101454.53;4958165;28;46119;-40
2023/08/23 07:38:53;;;;;;;;;2.50;2.00;;;;;25.49;46.65;101456.22;4956959;28;45255;-48
2023/08/23 07:41:18;;;;;;;;;2.50;2.50;;;;;25.49;46.36;101458.88;4957629;28;53666;-41
2023/08/23 07:43:43;;;;;;;;;2.00;2.00;;;;;25.49;46.37;101458.88;4958222;28;45585;-43
2023/08/23 07:46:09;;;;;;;;;3.50;3.50;;;;;25.54;46.34;101458.56;4957833;28;46087;-37
2023/08/23 07:48:34;;;;;;;;;3.00;3.00;;;;;25.53;46.15;101463.00;4958196;28;45441;-42
2023/08/23 07:51:04;;;;;;;;;3.25;3.25;;;;;25.52;46.18;101460.47;4957906;28;45238;-43
2023/08/23 07:53:30;;;;;;;;;3.00;3.00;;;;;25.54;46.22;101464.72;4958139;28;45389;-45
2023/08/23 07:55:55;;;;;;;;;3.00;3.00;;;;;25.55;46.51;101471.72;4957785;28;45932;-37
2023/08/23 07:58:20;;;;;;;;;2.50;2.50;;;;;25.55;46.16;101466.41;4957851;28;45258;-38
2023/08/23 08:00:46;;;;;;;;;3.75;3.75;;;;;25.56;46.60;101470.78;4957793;28;45486;-37
2023/08/23 08:03:11;;;;;;;;;3.50;3.50;;;;;25.58;46.65;101465.34;4940682;28;45177;-41
2023/08/23 08:05:37;;;;;;;;;4.75;3.25;;;;;25.58;46.64;101468.88;4958041;28;46182;-39
2023/08/23 08:08:04;;;;;;;;;3.50;3.50;;;;;25.58;46.51;101471.53;4957628;28;45353;-36
2023/08/23 08:10:29;;;;;;;;;7.00;3.00;;;;;25.59;46.17;101461.75;4957713;28;45393;-42
2023/08/23 08:12:55;;;;;;;;;3.00;3.00;;;;;25.59;46.50;101467.94;4957929;28;45637;-38
2023/08/23 08:15:21;;;;;;;;;4.75;4.75;;;;;25.60;46.51;101466.97;4957403;28;45670;-35
2023/08/23 08:17:50;;;;;;;;;4.00;3.00;;;;;25.60;46.67;101463.44;4957534;28;45326;-36
2023/08/23 08:20:16;;;;;;;;;2.00;2.00;;;;;25.59;46.43;101459.09;4957692;28;45411;-39
2023/08/23 08:22:42;;;;;;;;;5.50;3.00;;;;;25.63;46.49;101466.75;4957677;28;45597;-36
2023/08/23 08:25:08;;;;;;;;;3.75;3.00;;;;;25.66;46.62;101462.19;4956358;28;47782;-40
2023/08/23 08:27:34;;;;;;;;;5.00;4.00;;;;;25.66;46.53;101460.41;4957324;28;45639;-39
2023/08/23 08:29:59;;;;;;;;;3.00;3.00;;;;;25.68;46.27;101457.63;4957436;28;45224;-36
2023/08/23 08:32:26;;;;;;;;;3.00;3.00;;;;;25.69;46.37;101451.38;4957139;28;51393;-36
2023/08/23 08:34:51;;;;;;;;;3.00;3.00;;;;;25.70;46.39;101459.22;4957290;28;46405;-36
2023/08/23 15:50:36;;;;;;;;;5.25;5.25;;;;;27.28;45.65;101208.59;5515425;23;46384;-42
2023/08/23 15:53:02;;;;;;;;;7.25;6.25;;;;;27.29;45.53;101209.44;4958147;28;45166;-39
2023/08/23 15:55:29;;;;;;;;;6.00;6.00;;;;;27.30;45.63;101205.81;4958008;28;45453;-44
2023/08/23 15:57:54;;;;;;;;;7.00;7.00;;;;;27.29;45.72;101204.97;4957763;28;45267;-39
2023/08/23 16:00:21;;;;;;;;;9.75;5.50;;;;;27.30;45.95;101203.16;4957233;28;55429;-40
2023/08/23 16:02:47;;;;;;;;;5.75;5.25;;;;;27.29;45.65;101204.97;4957860;28;45449;-42
2023/08/23 16:05:12;;;;;;;;;6.00;5.00;;;;;27.30;45.63;101209.34;4957413;28;46112;-41
2023/08/23 16:07:38;;;;;;;;;6.50;4.50;;;;;27.30;45.17;101205.81;4957472;28;45350;-43
2023/08/23 16:10:06;;;;;;;;;6.50;4.50;;;;;27.30;45.83;101208.47;4940151;28;45427;-43
2023/08/23 16:12:31;;;;;;;;;5.50;5.25;;;;;27.30;45.45;101211.13;4958146;28;45544;-44
2023/08/23 16:14:56;;;;;;;;;5.00;5.00;;;;;27.31;45.51;101196.88;4957449;28;45410;-43
2023/08/23 16:17:22;;;;;;;;;5.00;5.00;;;;;27.31;45.29;101197.72;4957434;28;45244;-46
2023/08/23 16:19:47;;;;;;;;;5.00;5.00;;;;;27.31;45.40;101199.53;4940020;28;45432;-44
2023/08/23 16:22:12;;;;;;;;;6.00;5.00;;;;;27.32;45.32;101190.56;4957294;28;45394;-44
2023/08/23 16:24:38;;;;;;;;;7.00;6.00;;;;;27.31;45.48;101192.41;4957332;28;45893;-43
2023/08/23 16:27:03;;;;;;;;;3.00;3.00;;;;;27.30;45.61;101195.16;4957522;28;45349;-39
2023/08/23 16:29:28;;;;;;;;;7.75;6.75;;;;;27.31;45.16;101192.41;4957762;28;45409;-42
2023/08/23 16:31:54;;;;;;;;;4.00;4.00;;;;;27.30;45.30;101184.53;4957199;28;45555;-41
2023/08/23 16:34:21;;;;;;;;;6.75;5.00;;;;;27.30;45.30;101173.88;4956509;28;64509;-39
2023/08/23 16:36:47;;;;;;;;;6.25;5.00;;;;;27.30;45.16;101180.06;4957353;28;45778;-42
2023/08/23 16:39:12;;;;;;;;;6.25;6.25;;;;;27.30;45.13;101179.19;4957535;28;45388;-41
2023/08/23 16:41:38;;;;;;;;;5.50;4.50;;;;;27.31;45.30;101180.91;4957302;28;45510;-45
2023/08/23 16:44:03;;;;;;;;;5.00;3.75;;;;;27.30;45.33;101173.88;4957473;28;45980;-45
2023/08/23 16:46:29;;;;;;;;;7.00;6.00;;;;;27.30;45.14;101166.75;4939583;28;45354;-42
2023/08/23 16:48:54;;;;;;;;;8.25;6.00;;;;;27.31;45.56;101164.94;4957192;28;45256;-46
2023/08/23 16:51:20;;;;;;;;;4.50;4.50;;;;;27.31;45.10;101154.28;4939746;28;45332;-46
2023/08/23 16:53:45;;;;;;;;;4.00;4.00;;;;;27.33;45.12;101170.16;4956776;28;48548;-45
2023/08/23 16:56:11;;;;;;;;;5.50;3.00;;;;;27.33;44.83;101165.66;4956972;28;45240;-44
2023/08/23 16:58:37;;;;;;;;;7.00;6.00;;;;;27.33;45.13;101156.84;4957067;28;45228;-45
2023/08/23 17:01:02;;;;;;;;;8.00;5.00;;;;;27.34;45.24;101162.03;4957332;28;45434;-40
2023/08/23 17:03:29;;;;;;;;;4.25;4.25;;;;;27.34;45.15;101167.34;4956842;28;46065;-45
2023/08/23 17:05:55;;;;;;;;;5.25;5.25;;;;;27.35;45.08;101158.41;4956791;28;45282;-40
2023/08/23 17:08:20;;;;;;;;;5.50;5.25;;;;;27.36;45.24;101152.13;4957002;28;45870;-45
2023/08/23 17:10:46;;;;;;;;;5.00;5.00;;;;;27.36;45.17;101130.81;4956586;28;52162;-43
2023/08/23 17:13:11;;;;;;;;;7.00;6.00;;;;;27.38;45.04;101125.38;4956650;28;45282;-44
2023/08/23 17:15:37;;;;;;;;;8.00;6.00;;;;;27.38;45.23;101131.56;4956689;28;45330;-45
2023/08/23 17:18:02;;;;;;;;;6.75;5.25;;;;;27.38;45.20;101118.25;4957263;28;45475;-46
2023/08/23 17:20:27;;;;;;;;;4.00;4.00;;;;;27.39;45.10;101114.63;4957028;28;45708;-43
2023/08/23 17:22:53;;;;;;;;;4.00;4.00;;;;;27.38;45.08;101107.59;4956555;28;46167;-46
2023/08/23 17:25:19;;;;;;;;;4.75;4.75;;;;;27.39;44.97;101119.94;4956394;28;51512;-43
2023/08/23 17:27:44;;;;;;;;;7.00;5.50;;;;;27.40;45.18;101118.94;4956749;28;45344;-44
2023/08/23 17:30:10;;;;;;;;;8.75;4.75;;;;;27.41;45.12;101099.34;4956858;28;45485;-46
2023/08/23 17:32:35;;;;;;;;;2.50;2.50;;;;;27.43;45.28;101078.78;4956755;28;46300;-41
2023/08/23 17:35:00;;;;;;;;;5.50;5.25;;;;;27.42;44.84;101066.44;4959856;28;45259;-45
2023/08/23 17:37:26;;;;;;;;;6.00;6.00;;;;;27.43;44.98;101072.63;4960017;28;45430;-41
2023/08/23 17:39:51;;;;;;;;;6.00;6.00;;;;;27.44;45.19;101077.00;4960132;28;45342;-40
2023/08/23 17:42:17;;;;;;;;;4.50;4.50;;;;;27.45;45.04;101073.38;4959861;28;46130;-44
2023/08/23 17:44:42;;;;;;;;;5.00;4.00;;;;;27.44;44.95;101051.22;4959933;28;45227;-45
2023/08/23 17:47:07;;;;;;;;;6.75;5.50;;;;;27.46;45.05;101041.31;4959547;28;59676;-46
2023/08/23 17:49:32;;;;;;;;;6.00;6.00;;;;;27.45;45.03;101026.31;4959626;28;50076;-47
2023/08/23 17:51:58;;;;;;;;;8.25;5.00;;;;;27.44;45.16;101005.16;4959606;28;45437;-46
2023/08/23 17:54:23;;;;;;;;;6.25;4.00;;;;;27.44;45.16;100984.69;4959734;28;45367;-45
2023/08/23 17:56:49;;;;;;;;;5.50;5.00;;;;;27.44;45.00;100984.69;4959762;28;45355;-48
2023/08/23 17:59:14;;;;;;;;;7.00;6.00;;;;;27.44;45.03;101008.63;4959904;28;45443;-44
2023/08/23 18:01:40;;;;;;;;;7.75;6.00;;;;;27.44;44.82;101053.06;4959623;28;45343;-43
2023/08/23 18:04:05;;;;;;;;;5.00;5.00;;;;;27.44;45.32;101085.81;4959847;28;45330;-43
2023/08/23 18:06:31;;;;;;;;;6.00;5.25;;;;;27.45;44.97;101086.69;4959731;28;45365;-44
2023/08/23 18:08:56;;;;;;;;;4.50;4.50;;;;;27.45;45.09;101070.72;4959769;28;45567;-46
2023/08/23 18:11:21;;;;;;;;;5.25;5.25;;;;;27.45;45.46;101060.91;4958808;28;61256;-43
2023/08/23 18:13:47;;;;;;;;;6.75;6.25;;;;;27.43;45.15;101057.47;4959506;28;45373;-41
2023/08/23 18:16:12;;;;;;;;;5.00;5.00;;;;;27.45;45.15;101049.44;4959536;28;45239;-45
2023/08/23 18:18:37;;;;;;;;;6.00;5.25;;;;;27.44;45.50;101056.53;4960029;28;45235;-43
2023/08/23 18:21:03;;;;;;;;;7.25;6.00;;;;;27.44;45.27;101061.03;4959334;28;45514;-49
2023/08/23 18:23:28;;;;;;;;;6.75;6.75;;;;;27.43;45.13;101067.31;4959026;28;51950;-42
2023/08/23 18:25:54;;;;;;;;;7.00;6.00;;;;;27.43;45.13;101073.47;4958954;28;51473;-45
2023/08/23 18:28:19;;;;;;;;;5.75;5.50;;;;;27.43;44.96;101084.09;4959550;28;45549;-45
2023/08/23 18:30:45;;;;;;;;;5.50;5.00;;;;;27.43;45.22;101084.09;4958962;28;47703;-43